Westbury, New York
Current Conditions -  °F | °C
As of 9:53 PM on Sunday 21 Dec 2014 (Local Time) from KFRG Reporting Station
Overcast Overcast  
Wind Chill:   Ceiling: 700
Heat Index:   Visibility: 10mi
Dew Point:   Wind: 6mph
Humidity: 89%   Direction: 20°NNE
Pressure: 30.32"   Gusts: NA
Location:  40.76°N, 73.59°W
Report Text: KFRG 220253Z 02005KT 10SM OVC007 02/01 A3032 RMK AO2 SLP269 T00220006 58001
Loading
Personal Weather Stations






























Interactive Weather Map New forecast layout! Learn more

10-Day Weather Forecast

Advertisements
Track Severe Weather on mobile